Terminal Aerodrome Forecast
Issued by NWS

Home | Current Version | Previous Version | Text Only | Print | Product List | Glossary On
Versions: 1 2 3 4 5 6 7 8 9 10 11 12 13 14 15 16 17 18 19 20 21 22 23
000
FTAK31 PANC 111405 AAB
TAFAAQ
TAF AMD
PAAQ 111405Z 1114/1212 13018G35KT P6SM -RA OVC050
     FM111600 14028G42KT P6SM SCT030 OVC060
     FM112200 14018G30KT P6SM BKN100
     FM120100 07015G25KT P6SM BKN060=

USA.gov is the U.S. government's official web portal to all federal, state and local government web resources and services.